createdAt,value
2023-01-25T00:04:55.595Z,103038.16
2023-01-25T00:09:56.922Z,103032.19
2023-01-25T00:14:58.236Z,103035.31
2023-01-25T00:19:59.572Z,103036.06
2023-01-25T00:25:00.961Z,103021.84
2023-01-25T00:30:02.431Z,103024.03
2023-01-25T00:35:03.891Z,103024.06
2023-01-25T00:40:05.810Z,103011.81
2023-01-25T00:45:10.782Z,103014.53
2023-01-25T00:50:12.174Z,103010.38
2023-01-25T00:55:13.628Z,103000.31
2023-01-25T01:00:15.244Z,102999.38
2023-01-25T01:05:16.680Z,103005.69
2023-01-25T01:10:18.374Z,102994.09
2023-01-25T01:15:19.849Z,102996.66
2023-01-25T01:20:21.325Z,102995.38
2023-01-25T01:25:22.633Z,102996.13
2023-01-25T01:30:23.932Z,102994.31
2023-01-25T01:35:25.420Z,102994.19
2023-01-25T01:40:26.830Z,102989.56
2023-01-25T01:45:43.749Z,102990.53
2023-01-25T01:50:45.572Z,102986.81
2023-01-25T01:55:47.431Z,102991.56
2023-01-25T02:00:48.828Z,102991.81
2023-01-25T02:06:00.672Z,102995.59
2023-01-25T02:11:03.357Z,102985.31
2023-01-25T02:16:05.022Z,102984.56
2023-01-25T02:21:06.355Z,102982.03
2023-01-25T02:26:07.879Z,102982.72
2023-01-25T02:31:09.292Z,102976.22
2023-01-25T02:36:13.727Z,102969.84
2023-01-25T02:41:34.506Z,102969.94
2023-01-25T02:46:37.276Z,102967.22
2023-01-25T02:51:40.056Z,102968.63
2023-01-25T02:56:41.784Z,102966.84
2023-01-25T03:01:43.491Z,102969.63
2023-01-25T03:06:44.900Z,102970.47
2023-01-25T03:11:46.277Z,102967.03
2023-01-25T03:16:47.580Z,102964.16
2023-01-25T03:21:48.935Z,102960.63
2023-01-25T03:27:09.027Z,102961.28
2023-01-25T03:32:10.519Z,102943.47
2023-01-25T03:37:11.958Z,102949.50
2023-01-25T03:42:13.389Z,102946.00
2023-01-25T03:47:14.820Z,102941.97
2023-01-25T03:52:16.158Z,102946.53
2023-01-25T03:57:17.492Z,102939.09
2023-01-25T04:02:18.901Z,102935.25
2023-01-25T04:07:20.266Z,102930.31
2023-01-25T04:12:21.596Z,102930.09
2023-01-25T04:17:23.060Z,102922.69
2023-01-25T04:22:24.451Z,102914.13
2023-01-25T04:27:25.810Z,102917.91
2023-01-25T04:32:27.172Z,102907.69
2023-01-25T04:37:28.623Z,102905.09
2023-01-25T04:42:30.120Z,102905.91
2023-01-25T04:47:31.478Z,102898.28
2023-01-25T04:52:32.799Z,102906.09
2023-01-25T04:57:34.196Z,102896.47
2023-01-25T05:02:35.658Z,102891.94
2023-01-25T05:07:37.252Z,102891.41
2023-01-25T05:12:38.557Z,102887.91
2023-01-25T05:17:39.897Z,102886.25
2023-01-25T05:22:41.364Z,102881.13
2023-01-25T05:27:42.691Z,102879.06
2023-01-25T05:32:44.151Z,102868.91
2023-01-25T05:37:45.539Z,102864.22
2023-01-25T05:42:52.838Z,102864.00
2023-01-25T05:47:54.851Z,102860.97
2023-01-25T05:52:56.205Z,102859.47
2023-01-25T05:57:57.958Z,102863.84
2023-01-25T06:03:02.369Z,102856.81
2023-01-25T06:08:03.770Z,102853.50
2023-01-25T06:13:05.105Z,102851.31
2023-01-25T06:18:06.444Z,102844.56
2023-01-25T06:23:07.771Z,102842.28
2023-01-25T06:28:09.095Z,102842.38
2023-01-25T06:33:10.431Z,102831.91
2023-01-25T06:38:11.759Z,102847.28
2023-01-25T06:43:13.099Z,102847.03
2023-01-25T06:48:14.442Z,102839.19
2023-01-25T06:53:15.828Z,102842.28
2023-01-25T06:58:17.144Z,102839.56
2023-01-25T07:03:18.884Z,102833.59
2023-01-25T07:08:22.152Z,102836.59
2023-01-25T07:13:24.168Z,102838.09
2023-01-25T07:18:25.971Z,102842.66
2023-01-25T07:23:27.809Z,102835.41
2023-01-25T07:28:29.342Z,102833.59
2023-01-25T07:33:30.672Z,102831.41
2023-01-25T07:38:32.116Z,102838.59
2023-01-25T07:43:33.495Z,102842.53
2023-01-25T07:48:36.068Z,102848.88
2023-01-25T07:53:41.446Z,102846.31
2023-01-25T07:58:42.788Z,102845.16
2023-01-25T08:03:44.916Z,102844.75
2023-01-25T08:08:47.371Z,102850.31
2023-01-25T08:13:50.186Z,102847.66
2023-01-25T08:18:52.631Z,102843.59
2023-01-25T08:23:53.993Z,102855.97
2023-01-25T08:28:55.590Z,102852.97
2023-01-25T08:33:57.252Z,102854.16
2023-01-25T08:39:00.278Z,102840.31
2023-01-25T08:44:01.619Z,102842.44
2023-01-25T08:49:03.313Z,102843.34
2023-01-25T08:54:05.786Z,102837.22
2023-01-25T08:59:07.593Z,102832.69
2023-01-25T09:04:09.317Z,102823.72
2023-01-25T09:09:11.736Z,102816.47
2023-01-25T09:14:13.048Z,102813.91
2023-01-25T09:19:14.885Z,102803.59
2023-01-25T09:24:16.271Z,102810.88
2023-01-25T09:29:17.659Z,102816.38
2023-01-25T09:34:19.637Z,102807.06
2023-01-25T09:39:21.012Z,102797.97
2023-01-25T09:44:41.005Z,102804.19
2023-01-25T09:50:11.857Z,102794.38
2023-01-25T09:55:15.137Z,102789.38
2023-01-25T10:00:19.102Z,102783.81
2023-01-25T10:05:25.947Z,102783.31
2023-01-25T10:10:35.452Z,102772.09
2023-01-25T10:15:42.866Z,102761.81
2023-01-25T10:20:49.411Z,102761.34
2023-01-25T10:25:50.730Z,102749.47
2023-01-25T10:31:01.034Z,102739.94
2023-01-25T10:36:04.507Z,102737.75
2023-01-25T10:41:12.008Z,102733.47
2023-01-25T10:46:22.720Z,102721.16
2023-01-25T10:51:29.184Z,102709.88
2023-01-25T10:56:32.908Z,102709.94
2023-01-25T11:01:35.761Z,102699.13
2023-01-25T11:06:38.538Z,102703.41
2023-01-25T11:11:41.409Z,102702.41
2023-01-25T11:16:45.410Z,102686.22
2023-01-25T11:21:54.130Z,102685.78
2023-01-25T11:27:18.268Z,102672.22
2023-01-25T11:32:21.639Z,102670.97
2023-01-25T11:37:31.999Z,102661.91
2023-01-25T11:42:40.042Z,102652.50
2023-01-25T11:47:53.608Z,102649.19
2023-01-25T11:53:13.768Z,102639.56
2023-01-25T11:58:21.171Z,102623.63
2023-01-25T12:03:41.159Z,102622.81
2023-01-25T12:08:55.237Z,102614.59
2023-01-25T12:14:09.417Z,102598.03
2023-01-25T12:19:10.736Z,102589.50
2023-01-25T12:24:18.443Z,102587.59
2023-01-25T12:29:36.221Z,102564.84
2023-01-25T12:34:39.622Z,102542.13
2023-01-25T12:39:44.540Z,102529.91
2023-01-25T12:44:59.127Z,102522.69
2023-01-25T12:50:13.447Z,102502.16
2023-01-25T12:55:17.093Z,102507.03
2023-01-25T13:00:31.251Z,102497.59
2023-01-25T13:05:45.359Z,102485.66
2023-01-25T13:10:50.257Z,102467.16
2023-01-25T13:15:53.131Z,102459.78
2023-01-25T13:20:58.322Z,102449.31
2023-01-25T13:26:18.513Z,102442.69
2023-01-25T13:31:51.084Z,102435.78
2023-01-25T13:36:53.838Z,102429.91
2023-01-25T13:42:15.154Z,102426.94
2023-01-25T13:47:19.570Z,102421.56
2023-01-25T13:52:22.023Z,102394.16
2023-01-25T13:57:25.182Z,102397.13
2023-01-25T14:02:27.203Z,102386.06
2023-01-25T14:07:32.741Z,102380.69
2023-01-25T14:12:37.478Z,102378.44
2023-01-25T14:17:38.790Z,102369.38
2023-01-25T14:22:40.108Z,102364.13
2023-01-25T14:27:46.245Z,102366.06
2023-01-25T14:32:48.658Z,102372.03
2023-01-25T14:37:49.978Z,102368.94
2023-01-25T14:42:52.765Z,102368.91
2023-01-25T14:47:59.389Z,102349.66
2023-01-25T14:53:21.329Z,102345.06
2023-01-25T14:58:23.926Z,102340.94
2023-01-25T15:03:26.765Z,102334.63
2023-01-25T15:08:36.746Z,102335.31
2023-01-25T15:13:38.139Z,102331.41
2023-01-25T15:18:52.454Z,102329.25
2023-01-25T15:23:55.001Z,102319.84
2023-01-25T15:28:58.186Z,102315.28
2023-01-25T15:34:01.399Z,102311.31
2023-01-25T15:39:02.804Z,102309.88
2023-01-25T15:44:04.126Z,102301.06
2023-01-25T15:49:06.544Z,102308.81
2023-01-25T15:54:08.376Z,102301.72
2023-01-25T15:59:15.102Z,102295.22
2023-01-25T16:04:16.563Z,102288.16
2023-01-25T16:09:26.720Z,102282.78
2023-01-25T16:14:30.274Z,102276.34
2023-01-25T16:19:32.140Z,102271.88
2023-01-25T16:24:33.460Z,102274.09
2023-01-25T16:29:34.792Z,102276.84
2023-01-25T16:34:36.164Z,102268.94
2023-01-25T16:39:37.480Z,102280.06
2023-01-25T16:44:39.044Z,102277.56
2023-01-25T16:49:40.347Z,102271.06
2023-01-25T16:54:41.667Z,102273.81
2023-01-25T16:59:42.969Z,102279.78
2023-01-25T17:04:44.285Z,102264.66
2023-01-25T17:09:45.593Z,102261.84
2023-01-25T17:14:46.940Z,102271.78
2023-01-25T17:19:48.884Z,102268.19
2023-01-25T17:24:50.369Z,102254.78
2023-01-25T17:29:51.763Z,102248.41
2023-01-25T17:34:53.781Z,102242.00
2023-01-25T17:39:55.134Z,102244.44
2023-01-25T17:44:56.483Z,102235.38
2023-01-25T17:49:57.795Z,102233.69
2023-01-25T17:55:00.388Z,102229.13
2023-01-25T18:00:01.840Z,102229.13
2023-01-25T18:05:03.228Z,102224.47
2023-01-25T18:10:05.047Z,102217.22
2023-01-25T18:15:06.954Z,102213.91
2023-01-25T18:20:10.603Z,102209.16
2023-01-25T18:25:35.156Z,102204.28
2023-01-25T18:30:42.948Z,102201.16
2023-01-25T18:35:47.728Z,102195.00
2023-01-25T18:40:49.080Z,102196.00
2023-01-25T18:45:57.242Z,102198.06
2023-01-25T18:50:59.393Z,102189.63
2023-01-25T18:56:04.893Z,102185.94
2023-01-25T19:01:16.797Z,102185.72
2023-01-25T19:06:19.626Z,102182.88
2023-01-25T19:11:21.536Z,102186.81
2023-01-25T19:16:25.813Z,102186.84
2023-01-25T19:21:27.809Z,102183.75
2023-01-25T19:26:29.235Z,102170.16
2023-01-25T19:31:33.749Z,102163.06
2023-01-25T19:41:55.286Z,102165.78
2023-01-25T19:47:21.388Z,102151.47
2023-01-25T19:52:22.742Z,102145.69
2023-01-25T19:57:24.111Z,102134.75
2023-01-25T20:02:25.730Z,102120.16
2023-01-25T20:07:27.847Z,102121.47
2023-01-25T20:12:29.197Z,102111.06
2023-01-25T20:17:30.548Z,102101.19
2023-01-25T20:22:31.948Z,102090.03
2023-01-25T20:27:33.438Z,102085.41
2023-01-25T20:32:35.831Z,102070.44
2023-01-25T20:37:37.242Z,102067.16
2023-01-25T20:42:38.561Z,102063.84
2023-01-25T20:47:39.884Z,102062.22
2023-01-25T20:52:41.252Z,102053.31
2023-01-25T20:57:42.581Z,102051.19
2023-01-25T21:02:43.945Z,102043.78
2023-01-25T21:07:45.296Z,102050.53
2023-01-25T21:12:46.623Z,102060.75
2023-01-25T21:17:51.820Z,102062.22
2023-01-25T21:22:53.174Z,102049.44
2023-01-25T21:27:54.515Z,102041.94
2023-01-25T21:32:55.854Z,102027.63
2023-01-25T21:37:57.187Z,102029.34
2023-01-25T21:42:58.529Z,102017.91
2023-01-25T21:48:00.062Z,102014.75
2023-01-25T21:53:01.547Z,102005.78
2023-01-25T21:58:02.945Z,101983.22
2023-01-25T22:03:04.321Z,101996.63
2023-01-25T22:08:05.765Z,101981.22
2023-01-25T22:13:07.082Z,101982.31
2023-01-25T22:18:08.422Z,101987.28
2023-01-25T22:23:09.744Z,101977.00
2023-01-25T22:28:13.494Z,101977.81
2023-01-25T22:33:15.108Z,101978.28
2023-01-25T22:38:16.447Z,101976.22
2023-01-25T22:43:17.821Z,101968.72
2023-01-25T22:48:19.913Z,101979.34
2023-01-25T22:53:21.281Z,101971.13
2023-01-25T22:58:22.672Z,101971.63
2023-01-25T23:03:24.032Z,101988.66
2023-01-25T23:08:25.444Z,101975.94
2023-01-25T23:13:27.601Z,101969.34
2023-01-25T23:18:47.597Z,101975.91
2023-01-25T23:23:49.073Z,101974.16
2023-01-25T23:28:52.012Z,101975.91
2023-01-25T23:33:58.555Z,101964.50
2023-01-25T23:39:00.102Z,101962.19
2023-01-25T23:44:01.928Z,101957.06
2023-01-25T23:49:03.487Z,101945.63
2023-01-25T23:54:04.844Z,101943.78
2023-01-25T23:59:07.742Z,101944.22
